Time;durP1;ratioP1;P1;durP2;ratioP2;P2;SDS_P1;SDS_P2;PMS_P1;PMS_P2;Temp;Humidity;BMP_temperature;BMP_pressure;BME280_temperature;BME280_humidity;BME280_pressure;Samples;Min_cycle;Max_cycle;Signal;HPM_P1;HPM_P2
2022/05/07 00:02:11;;;;;;;21.45;11.43;;;9.60;99.90;;;;;;5068949;28;20033;-69
2022/05/07 00:04:38;;;;;;;21.77;11.18;;;9.60;99.90;;;;;;5068770;28;20040;-70
2022/05/07 00:07:05;;;;;;;19.02;11.20;;;9.50;99.90;;;;;;5068014;28;20044;-68
2022/05/07 00:09:31;;;;;;;21.77;11.20;;;9.50;99.90;;;;;;5049903;28;20035;-69
2022/05/07 00:11:57;;;;;;;24.67;11.85;;;9.50;99.90;;;;;;5068092;28;20043;-69
2022/05/07 00:14:22;;;;;;;22.98;11.82;;;9.50;99.90;;;;;;5067071;28;20024;-69
2022/05/07 00:19:32;;;;;;;24.17;12.23;;;9.60;99.90;;;;;;5068180;28;20552;-69
2022/05/07 00:21:58;;;;;;;23.35;11.98;;;9.60;99.90;;;;;;5069050;28;20104;-69
2022/05/07 00:24:24;;;;;;;21.02;11.35;;;9.50;99.90;;;;;;5068838;28;20028;-69
2022/05/07 00:26:50;;;;;;;20.60;11.02;;;9.40;99.90;;;;;;5067625;28;20071;-69
2022/05/07 00:29:16;;;;;;;23.33;11.98;;;9.30;99.90;;;;;;5048998;28;20044;-67
2022/05/07 00:31:41;;;;;;;18.27;10.68;;;9.20;99.90;;;;;;5069425;28;20040;-68
2022/05/07 00:34:08;;;;;;;25.85;11.65;;;9.10;99.90;;;;;;5067184;28;20100;-68
2022/05/07 00:36:33;;;;;;;23.27;10.95;;;9.10;99.90;;;;;;5066636;28;20485;-69
2022/05/07 00:38:59;;;;;;;28.58;12.02;;;9.10;99.90;;;;;;5066886;28;20494;-69
2022/05/07 00:41:25;;;;;;;21.13;11.32;;;9.10;99.90;;;;;;5067175;28;20862;-69
2022/05/07 00:43:51;;;;;;;24.75;11.73;;;9.10;99.90;;;;;;5068324;28;20431;-69
2022/05/07 00:46:17;;;;;;;18.55;10.77;;;9.10;99.90;;;;;;5067439;28;20032;-69
2022/05/07 00:48:43;;;;;;;20.60;10.93;;;9.00;99.90;;;;;;5067158;28;20044;-69
2022/05/07 00:53:54;;;;;;;20.58;11.23;;;8.90;99.90;;;;;;5068423;28;20495;-69
2022/05/07 00:56:20;;;;;;;19.35;10.73;;;8.90;99.90;;;;;;5067914;28;20028;-69
2022/05/07 00:58:46;;;;;;;21.08;11.10;;;8.80;99.90;;;;;;5067472;28;20116;-69
2022/05/07 01:01:11;;;;;;;23.35;10.95;;;8.80;99.90;;;;;;5066053;28;20036;-69
2022/05/07 01:03:38;;;;;;;21.23;11.63;;;8.80;99.90;;;;;;5065914;28;20054;-69
2022/05/07 01:06:04;;;;;;;21.50;10.85;;;8.80;99.90;;;;;;5069465;28;20074;-68
2022/05/07 01:08:33;;;;;;;21.17;11.15;;;8.80;99.90;;;;;;5067414;28;20044;-70
2022/05/07 01:10:59;;;;;;;21.02;10.88;;;8.70;99.90;;;;;;5059141;28;20039;-68
2022/05/07 01:13:25;;;;;;;18.85;10.73;;;8.70;99.90;;;;;;5062907;28;20174;-69
2022/05/07 01:15:56;;;;;;;20.02;10.77;;;8.60;99.90;;;;;;5049953;28;20461;-69
2022/05/07 01:18:22;;;;;;;20.85;11.13;;;8.60;99.90;;;;;;5063933;28;20032;-68
2022/05/07 01:20:48;;;;;;;23.90;10.73;;;8.60;99.90;;;;;;5069298;28;20357;-69
2022/05/07 01:23:15;;;;;;;18.98;9.57;;;8.50;99.90;;;;;;5066871;28;20476;-69
2022/05/07 01:25:41;;;;;;;16.63;9.38;;;8.40;99.90;;;;;;5067585;28;20449;-69
2022/05/07 01:28:06;;;;;;;17.73;10.02;;;8.40;99.90;;;;;;5068933;28;20111;-68
2022/05/07 01:30:34;;;;;;;171.43;10.60;;;8.40;99.90;;;;;;5064576;28;20492;-68
2022/05/07 01:33:00;;;;;;;71.63;10.02;;;8.40;99.90;;;;;;5066463;28;20035;-68
2022/05/07 01:35:26;;;;;;;19.05;10.50;;;8.40;99.90;;;;;;5066846;28;20216;-69
2022/05/07 01:37:52;;;;;;;19.08;10.43;;;8.30;99.90;;;;;;5065400;28;20079;-68
2022/05/07 01:40:17;;;;;;;20.40;10.73;;;8.10;99.90;;;;;;5067655;28;20418;-69
2022/05/07 01:42:43;;;;;;;17.33;9.98;;;8.00;99.90;;;;;;5068661;28;20025;-69
2022/05/07 01:45:09;;;;;;;16.63;9.55;;;7.90;99.90;;;;;;5066218;28;20025;-68
2022/05/07 01:50:23;;;;;;;51.83;12.05;;;7.90;99.90;;;;;;5057033;28;20128;-69
2022/05/07 01:52:49;;;;;;;18.55;10.32;;;7.90;99.90;;;;;;5066809;28;20128;-69
2022/05/07 01:55:14;;;;;;;19.63;10.88;;;7.90;99.90;;;;;;5067166;28;20115;-67
2022/05/07 01:57:40;;;;;;;18.88;10.32;;;7.90;99.90;;;;;;5067108;28;20036;-69
2022/05/07 02:00:06;;;;;;;18.75;10.40;;;7.90;99.90;;;;;;5067469;28;20107;-66
2022/05/07 02:02:32;;;;;;;20.17;10.15;;;7.80;99.90;;;;;;5061883;28;20096;-68
2022/05/07 02:04:58;;;;;;;27.02;10.82;;;7.70;99.90;;;;;;5065613;28;20107;-69
2022/05/07 02:07:23;;;;;;;17.80;10.30;;;7.70;99.90;;;;;;5066199;28;20043;-68
2022/05/07 02:09:49;;;;;;;17.75;10.07;;;7.80;99.90;;;;;;5067459;28;20075;-68
2022/05/07 02:12:15;;;;;;;24.52;11.00;;;7.70;99.90;;;;;;5067054;28;20025;-67
2022/05/07 02:14:41;;;;;;;33.35;11.05;;;7.60;99.90;;;;;;5067764;28;20042;-69
2022/05/07 02:17:07;;;;;;;23.35;10.13;;;7.60;99.90;;;;;;5065850;28;20025;-68
2022/05/07 02:19:32;;;;;;;17.40;9.80;;;7.60;99.90;;;;;;5065850;28;20460;-69
2022/05/07 02:21:58;;;;;;;17.00;10.10;;;7.50;99.90;;;;;;5067523;28;20025;-69
2022/05/07 02:24:24;;;;;;;16.40;8.93;;;7.50;99.90;;;;;;5049461;28;20055;-68
2022/05/07 02:26:49;;;;;;;18.45;9.85;;;7.60;99.90;;;;;;5066053;28;21772;-69
2022/05/07 02:29:15;;;;;;;21.27;10.85;;;7.60;99.90;;;;;;5066401;28;20620;-69
2022/05/07 02:31:41;;;;;;;19.50;10.27;;;7.50;99.90;;;;;;5065346;28;20028;-68
2022/05/07 02:34:07;;;;;;;17.73;10.32;;;7.50;99.90;;;;;;5068153;28;20029;-68
2022/05/07 02:36:35;;;;;;;20.75;10.38;;;7.50;99.90;;;;;;5065310;28;20429;-68
2022/05/07 02:39:00;;;;;;;21.65;10.30;;;7.50;99.90;;;;;;5064807;28;20127;-68
2022/05/07 02:44:10;;;;;;;19.98;10.70;;;7.50;99.90;;;;;;5056422;28;20035;-68
2022/05/07 02:46:36;;;;;;;417.17;16.05;;;7.60;99.90;;;;;;5063589;28;20021;-68
2022/05/07 02:49:02;;;;;;;122.38;11.23;;;7.50;99.90;;;;;;5070681;28;20546;-70
2022/05/07 02:51:27;;;;;;;23.17;8.48;;;7.30;99.90;;;;;;5070441;28;20036;-70
2022/05/07 02:53:53;;;;;;;22.83;8.25;;;7.20;99.90;;;;;;5071444;28;20058;-68
2022/05/07 02:56:19;;;;;;;19.13;8.75;;;7.20;99.90;;;;;;5057391;28;20033;-69
2022/05/07 02:58:44;;;;;;;29.63;8.38;;;7.10;99.90;;;;;;5067615;28;20033;-69
2022/05/07 03:01:10;;;;;;;34.30;9.13;;;7.10;99.90;;;;;;5070068;28;20077;-68
2022/05/07 03:03:35;;;;;;;50.50;7.30;;;7.10;99.90;;;;;;5070720;28;20082;-69
2022/05/07 03:06:01;;;;;;;31.63;8.45;;;7.20;99.90;;;;;;5071230;28;20025;-69
2022/05/07 03:08:27;;;;;;;51.10;8.80;;;7.20;99.90;;;;;;5070955;28;20043;-69
2022/05/07 03:10:52;;;;;;;76.00;9.90;;;7.20;99.90;;;;;;5069652;28;20444;-68
2022/05/07 03:13:18;;;;;;;38.55;9.25;;;7.20;99.90;;;;;;5071035;28;20505;-67
2022/05/07 03:15:44;;;;;;;25.52;8.77;;;7.30;99.90;;;;;;5069407;28;20104;-69
2022/05/07 03:18:12;;;;;;;17.40;9.32;;;7.30;99.90;;;;;;5070534;28;20140;-68
2022/05/07 03:20:40;;;;;;;33.25;9.32;;;7.30;99.90;;;;;;5070188;28;20024;-68
2022/05/07 03:23:05;;;;;;;21.30;8.45;;;7.30;99.90;;;;;;5071612;28;20410;-68
2022/05/07 03:25:31;;;;;;;57.22;10.32;;;7.20;99.90;;;;;;5069806;28;20028;-68
2022/05/07 03:27:57;;;;;;;45.78;9.50;;;7.20;99.90;;;;;;5070922;28;20488;-69
2022/05/07 03:30:23;;;;;;;29.40;8.95;;;7.20;99.90;;;;;;5069752;28;20032;-69
2022/05/07 03:32:48;;;;;;;18.90;9.20;;;7.10;99.90;;;;;;5070070;28;20032;-68
2022/05/07 03:35:14;;;;;;;27.05;8.90;;;7.00;99.90;;;;;;5069700;28;20036;-68
2022/05/07 03:37:40;;;;;;;18.88;9.98;;;6.90;99.90;;;;;;5070684;28;20052;-68
2022/05/07 03:40:06;;;;;;;31.23;9.15;;;6.90;99.90;;;;;;5069440;28;20036;-68
2022/05/07 03:42:33;;;;;;;57.35;9.70;;;6.90;99.90;;;;;;5070483;28;20035;-69
2022/05/07 03:45:00;;;;;;;38.42;9.23;;;6.90;99.90;;;;;;5069473;28;20035;-68
2022/05/07 03:47:25;;;;;;;24.60;8.48;;;6.90;99.90;;;;;;5069487;28;20351;-70
2022/05/07 03:49:51;;;;;;;21.08;8.73;;;6.90;99.90;;;;;;5069477;28;20028;-69
2022/05/07 03:55:01;;;;;;;16.50;8.55;;;6.80;99.90;;;;;;5064045;28;20510;-68
2022/05/07 03:57:26;;;;;;;28.95;8.88;;;6.70;99.90;;;;;;5067218;28;20056;-68
2022/05/07 03:59:52;;;;;;;19.60;8.98;;;6.70;99.90;;;;;;5068604;28;20099;-68
2022/05/07 04:02:18;;;;;;;16.55;8.70;;;6.80;99.90;;;;;;5059959;28;20020;-67
2022/05/07 04:04:44;;;;;;;41.63;9.20;;;6.70;99.90;;;;;;5064817;28;20751;-69
2022/05/07 04:07:09;;;;;;;62.38;8.90;;;6.70;99.90;;;;;;5066588;28;20045;-68
2022/05/07 04:09:36;;;;;;;43.20;8.48;;;6.70;99.90;;;;;;5069925;28;20028;-70
2022/05/07 04:12:02;;;;;;;33.53;9.20;;;6.70;99.90;;;;;;5061052;28;20044;-69
2022/05/07 04:14:28;;;;;;;27.50;8.13;;;6.70;99.90;;;;;;5067041;28;20464;-69
2022/05/07 04:16:54;;;;;;;19.65;7.70;;;6.70;99.90;;;;;;5069909;28;20040;-69
2022/05/07 04:19:19;;;;;;;18.52;7.68;;;6.60;99.90;;;;;;5065246;28;20147;-68
2022/05/07 04:21:45;;;;;;;14.02;8.10;;;6.50;99.90;;;;;;5066573;28;20033;-68
2022/05/07 04:24:10;;;;;;;14.27;8.25;;;6.50;99.90;;;;;;5069284;28;20050;-69
2022/05/07 04:26:36;;;;;;;21.95;9.05;;;6.50;99.90;;;;;;5069729;28;20028;-68
2022/05/07 04:29:02;;;;;;;17.10;8.57;;;6.50;99.90;;;;;;5060961;28;20052;-69
2022/05/07 04:31:28;;;;;;;15.20;8.05;;;6.50;99.90;;;;;;5061178;28;20112;-69
2022/05/07 04:33:53;;;;;;;19.17;8.40;;;6.50;99.90;;;;;;5066231;28;20501;-69
2022/05/07 04:36:19;;;;;;;19.27;9.60;;;6.50;99.90;;;;;;5064211;28;20095;-65
2022/05/07 04:38:45;;;;;;;18.13;9.75;;;6.50;99.90;;;;;;5067624;28;20075;-67
2022/05/07 04:41:10;;;;;;;18.52;8.77;;;6.50;99.90;;;;;;5065147;28;20094;-69
2022/05/07 04:43:36;;;;;;;15.40;8.70;;;6.50;99.90;;;;;;5060111;28;20642;-67
2022/05/07 04:46:02;;;;;;;88.70;9.63;;;6.50;99.90;;;;;;5064936;28;20020;-68
2022/05/07 04:48:27;;;;;;;44.75;8.98;;;6.60;99.90;;;;;;5062118;28;20123;-68
2022/05/07 04:50:53;;;;;;;38.53;9.18;;;6.70;99.90;;;;;;5066012;28;20139;-69
2022/05/07 04:53:19;;;;;;;13.75;8.40;;;6.80;99.90;;;;;;5068121;28;20059;-67
2022/05/07 04:55:44;;;;;;;18.88;9.52;;;6.80;99.90;;;;;;5060597;28;20365;-68
2022/05/07 04:58:10;;;;;;;18.65;9.85;;;6.70;99.90;;;;;;5068067;28;20540;-69
2022/05/07 05:00:36;;;;;;;16.75;9.75;;;6.70;99.90;;;;;;5064539;28;20831;-68
2022/05/07 05:03:01;;;;;;;16.23;9.30;;;6.70;99.90;;;;;;5072972;28;20445;-69
2022/05/07 05:05:29;;;;;;;18.45;9.38;;;6.80;99.90;;;;;;5071858;28;20107;-68
2022/05/07 05:07:55;;;;;;;68.32;9.93;;;7.00;99.90;;;;;;5067908;28;20043;-68
2022/05/07 05:10:22;;;;;;;115.20;10.55;;;7.10;99.90;;;;;;5066327;28;20107;-68
2022/05/07 05:12:48;;;;;;;34.10;8.73;;;7.20;99.90;;;;;;5068341;28;20021;-69
2022/05/07 05:15:14;;;;;;;135.82;11.70;;;7.20;99.90;;;;;;5066799;28;20035;-69
2022/05/07 05:17:39;;;;;;;155.32;12.15;;;7.30;99.90;;;;;;5052699;28;20650;-69
2022/05/07 05:20:05;;;;;;;182.38;12.95;;;7.30;99.90;;;;;;5069807;28;20031;-69
2022/05/07 05:22:31;;;;;;;229.57;14.23;;;7.40;99.90;;;;;;5089125;28;20413;-68
2022/05/07 05:24:57;;;;;;;169.32;14.38;;;7.50;99.90;;;;;;5077342;28;20078;-68
2022/05/07 05:27:23;;;;;;;258.10;15.55;;;7.50;99.90;;;;;;5068516;28;20461;-66
2022/05/07 05:29:49;;;;;;;243.18;15.55;;;7.40;99.90;;;;;;5066828;28;20037;-68
2022/05/07 05:32:18;;;;;;;70.75;11.35;;;7.40;99.90;;;;;;5068695;28;20029;-69
2022/05/07 05:34:49;;;;;;;253.90;14.27;;;7.40;99.90;;;;;;5065983;28;20038;-68
2022/05/07 05:37:15;;;;;;;38.40;10.73;;;7.50;99.90;;;;;;5063137;28;20211;-69
2022/05/07 05:39:42;;;;;;;410.75;17.30;;;7.50;99.90;;;;;;5061240;28;20025;-69
2022/05/07 05:42:08;;;;;;;86.38;11.10;;;7.50;99.90;;;;;;5056166;28;20130;-68
2022/05/07 05:44:41;;;;;;;359.10;16.15;;;7.40;99.90;;;;;;5058210;28;20530;-69
2022/05/07 05:47:07;;;;;;;112.88;11.60;;;7.40;99.90;;;;;;5066229;28;20033;-69
2022/05/07 05:49:36;;;;;;;42.58;9.90;;;7.50;99.90;;;;;;5066486;28;20059;-69
2022/05/07 05:52:06;;;;;;;284.45;14.20;;;7.50;99.90;;;;;;5064471;28;20033;-69
2022/05/07 05:54:33;;;;;;;73.97;11.18;;;7.70;99.90;;;;;;5063080;28;20087;-69
2022/05/07 05:56:59;;;;;;;24.77;11.25;;;8.00;99.90;;;;;;5064238;28;20051;-69
2022/05/07 05:59:25;;;;;;;175.27;12.05;;;8.20;99.90;;;;;;5064707;28;20491;-67
2022/05/07 06:01:51;;;;;;;98.10;11.27;;;8.40;99.90;;;;;;5067216;28;20039;-69
2022/05/07 06:04:17;;;;;;;73.00;11.10;;;8.50;99.90;;;;;;5065033;28;20025;-67
2022/05/07 06:06:43;;;;;;;104.80;11.50;;;8.60;99.90;;;;;;5066250;28;20119;-69
2022/05/07 06:09:08;;;;;;;20.88;10.27;;;8.80;99.90;;;;;;5066459;28;20636;-69
2022/05/07 06:11:34;;;;;;;17.92;9.45;;;9.00;99.90;;;;;;5064602;28;20040;-73
2022/05/07 06:13:59;;;;;;;19.17;11.25;;;9.20;99.90;;;;;;5064453;28;20060;-70
2022/05/07 06:16:25;;;;;;;18.13;10.70;;;9.50;99.90;;;;;;5060606;28;20085;-67
2022/05/07 06:18:51;;;;;;;19.27;10.85;;;9.80;99.90;;;;;;5068823;28;20029;-70
2022/05/07 06:21:17;;;;;;;19.40;10.68;;;9.90;99.90;;;;;;5051287;28;20036;-70
2022/05/07 06:23:43;;;;;;;18.60;10.73;;;9.90;99.90;;;;;;5066134;28;20071;-68
2022/05/07 06:28:54;;;;;;;18.25;10.57;;;10.10;99.90;;;;;;5072195;28;20086;-70
2022/05/07 06:31:19;;;;;;;20.17;11.35;;;10.30;99.90;;;;;;5071856;28;20416;-70
2022/05/07 06:33:45;;;;;;;19.65;10.82;;;10.50;99.90;;;;;;5069439;28;20048;-70
2022/05/07 06:36:11;;;;;;;17.30;10.00;;;10.60;99.90;;;;;;5069189;28;20032;-69
2022/05/07 06:38:37;;;;;;;20.27;10.98;;;10.80;99.90;;;;;;5046387;28;20507;-69
2022/05/07 06:41:05;;;;;;;17.95;10.43;;;10.90;99.90;;;;;;5068431;28;20465;-69
2022/05/07 06:43:31;;;;;;;21.05;11.13;;;11.10;99.90;;;;;;5066691;28;20035;-70
2022/05/07 06:45:58;;;;;;;24.95;11.05;;;11.30;99.90;;;;;;5070410;28;20126;-70
2022/05/07 06:48:24;;;;;;;17.38;10.18;;;11.50;99.90;;;;;;5069986;28;20037;-66
2022/05/07 06:50:51;;;;;;;20.52;10.70;;;11.80;99.90;;;;;;5069410;28;20016;-69
2022/05/07 06:53:17;;;;;;;21.10;10.88;;;12.00;99.90;;;;;;5069674;28;20029;-67
2022/05/07 06:58:30;;;;;;;19.13;10.95;;;12.10;99.90;;;;;;5068623;28;20035;-66
2022/05/07 07:00:57;;;;;;;20.88;11.48;;;12.30;99.90;;;;;;5070163;28;20071;-67
2022/05/07 07:03:24;;;;;;;24.05;11.30;;;12.50;99.90;;;;;;5072036;28;20086;-68
2022/05/07 07:05:50;;;;;;;22.73;10.35;;;12.50;99.90;;;;;;5071460;28;20032;-67
2022/05/07 07:08:16;;;;;;;19.70;10.50;;;12.50;99.90;;;;;;5071864;28;20106;-67
2022/05/07 07:10:42;;;;;;;18.08;9.90;;;12.70;99.90;;;;;;5070846;28;20029;-69
2022/05/07 07:13:09;;;;;;;20.00;10.18;;;12.90;99.90;;;;;;5070801;28;20021;-66
2022/05/07 07:15:36;;;;;;;17.55;10.00;;;13.00;99.90;;;;;;5070428;28;20499;-67
2022/05/07 07:18:04;;;;;;;18.23;10.23;;;13.00;99.90;;;;;;5071638;28;20417;-67
2022/05/07 07:20:30;;;;;;;20.67;10.07;;;13.20;99.90;;;;;;5070161;28;20488;-68
2022/05/07 07:22:56;;;;;;;14.80;9.43;;;13.50;99.90;;;;;;5071580;28;20094;-68
2022/05/07 07:25:22;;;;;;;20.85;10.55;;;13.70;99.90;;;;;;5068714;28;20449;-71
2022/05/07 07:27:47;;;;;;;23.52;10.23;;;13.90;99.90;;;;;;5058161;28;20079;-70
2022/05/07 07:30:13;;;;;;;22.27;10.80;;;14.00;99.90;;;;;;5065780;28;20480;-71
2022/05/07 07:32:39;;;;;;;19.33;10.38;;;14.10;99.90;;;;;;5064245;28;20025;-71
2022/05/07 07:35:05;;;;;;;20.45;10.13;;;14.20;99.90;;;;;;5067702;28;20040;-72
2022/05/07 07:37:34;;;;;;;23.27;10.68;;;14.40;99.90;;;;;;5064376;28;20061;-72
2022/05/07 07:40:00;;;;;;;22.45;10.00;;;14.60;99.90;;;;;;5069212;28;20099;-71
2022/05/07 07:42:27;;;;;;;18.00;9.70;;;14.80;99.90;;;;;;5071190;28;20128;-72
2022/05/07 07:50:26;;;;;;;18.80;9.35;;;15.50;99.90;;;;;;5068476;28;20031;-72
2022/05/07 07:53:03;;;;;;;19.35;9.68;;;15.70;99.90;;;;;;5068520;28;20030;-72
2022/05/07 07:55:29;;;;;;;19.45;10.35;;;15.90;99.90;;;;;;5065270;28;20094;-70
2022/05/07 07:57:56;;;;;;;16.60;10.13;;;16.00;99.90;;;;;;5068466;28;20040;-71
2022/05/07 08:00:23;;;;;;;15.05;10.05;;;16.00;99.90;;;;;;5054200;28;20035;-71
2022/05/07 08:02:55;;;;;;;20.23;10.63;;;15.90;99.90;;;;;;5066010;28;20020;-71
2022/05/07 08:05:22;;;;;;;18.52;10.55;;;15.80;99.90;;;;;;5061907;28;20028;-73
2022/05/07 08:13:17;;;;;;;17.50;9.48;;;16.10;99.90;;;;;;5065189;28;20058;-72
2022/05/07 08:15:43;;;;;;;17.98;9.35;;;16.30;99.90;;;;;;5052070;28;20025;-72
2022/05/07 08:18:08;;;;;;;17.85;10.63;;;16.40;99.90;;;;;;5069064;28;20052;-71
2022/05/07 08:20:34;;;;;;;16.48;9.20;;;16.50;99.90;;;;;;5067182;28;20393;-70
2022/05/07 08:23:00;;;;;;;15.75;9.23;;;16.80;99.90;;;;;;5067522;28;20036;-72
2022/05/07 08:25:26;;;;;;;16.75;9.45;;;17.00;99.90;;;;;;5066792;28;20039;-72
2022/05/07 08:27:51;;;;;;;15.90;9.90;;;17.20;99.90;;;;;;5067604;28;20119;-72
2022/05/07 08:30:17;;;;;;;15.60;10.40;;;17.50;99.90;;;;;;5067275;28;20056;-71
2022/05/07 08:32:42;;;;;;;16.92;10.38;;;17.80;99.90;;;;;;5063024;28;20159;-71
2022/05/07 08:35:08;;;;;;;14.68;9.45;;;17.90;99.90;;;;;;5068642;28;20432;-71
2022/05/07 08:37:34;;;;;;;14.35;8.32;;;18.10;99.90;;;;;;5067385;28;20481;-70
2022/05/07 08:40:01;;;;;;;12.18;7.68;;;18.30;99.90;;;;;;5068673;28;20522;-71
2022/05/07 08:42:30;;;;;;;12.35;7.03;;;18.60;99.90;;;;;;5065733;28;20037;-73
2022/05/07 08:44:56;;;;;;;12.45;6.75;;;19.00;99.90;;;;;;5064370;28;20039;-72
2022/05/07 08:47:26;;;;;;;14.07;7.70;;;19.30;99.90;;;;;;5067880;28;20044;-73
2022/05/07 08:49:52;;;;;;;12.77;6.97;;;19.60;99.90;;;;;;5068883;28;20051;-73
2022/05/07 08:52:19;;;;;;;13.85;7.22;;;19.80;99.90;;;;;;5065471;28;20036;-72
2022/05/07 08:54:46;;;;;;;12.82;6.85;;;20.00;99.90;;;;;;5065173;28;20029;-71
2022/05/07 08:57:12;;;;;;;15.40;6.88;;;19.90;99.90;;;;;;5067987;28;20457;-72
2022/05/07 08:59:38;;;;;;;14.43;7.35;;;20.10;99.90;;;;;;5065308;28;20131;-72
2022/05/07 09:02:04;;;;;;;11.55;6.38;;;20.20;99.90;;;;;;5048243;28;20115;-73
2022/05/07 09:04:30;;;;;;;11.05;6.43;;;20.30;99.90;;;;;;5065900;28;20059;-73
2022/05/07 09:06:57;;;;;;;10.90;6.10;;;20.40;99.90;;;;;;5066486;28;20125;-72
2022/05/07 09:09:24;;;;;;;12.10;6.35;;;20.30;99.90;;;;;;5066209;28;20048;-72
2022/05/07 09:11:49;;;;;;;9.65;5.32;;;20.40;99.90;;;;;;5067463;28;20073;-72
2022/05/07 09:14:18;;;;;;;10.68;5.32;;;20.20;99.50;;;;;;5069354;28;20435;-72
2022/05/07 09:16:46;;;;;;;13.82;5.70;;;20.20;99.90;;;;;;5056281;28;20115;-72
2022/05/07 09:19:20;;;;;;;9.82;5.57;;;20.10;99.90;;;;;;5071163;28;20070;-73
2022/05/07 09:21:47;;;;;;;9.18;5.80;;;19.90;99.90;;;;;;5065297;28;20119;-72
2022/05/07 09:24:13;;;;;;;15.30;5.93;;;19.80;99.90;;;;;;5067648;28;20353;-73
2022/05/07 09:26:40;;;;;;;13.45;5.97;;;20.20;99.90;;;;;;5063724;28;20059;-73
2022/05/07 09:29:11;;;;;;;12.73;6.00;;;20.00;97.80;;;;;;5064657;28;20038;-73
2022/05/07 09:31:38;;;;;;;;;;;20.00;97.30;;;;;;5065718;28;20047;-72
2022/05/07 09:37:16;;;;;;;8.73;5.72;;;19.70;94.90;;;;;;5064671;28;20109;-74
2022/05/07 09:39:47;;;;;;;10.15;5.85;;;19.70;95.40;;;;;;5064748;28;20044;-77
2022/05/07 09:42:18;;;;;;;10.88;5.50;;;19.80;94.10;;;;;;5064456;28;20032;-75
2022/05/07 09:44:45;;;;;;;9.70;5.90;;;19.40;94.80;;;;;;5063640;28;20024;-76
2022/05/07 09:47:12;;;;;;;10.15;6.20;;;19.40;96.70;;;;;;5068285;28;20025;-74
2022/05/07 09:52:31;;;;;;;12.50;7.20;;;19.70;97.40;;;;;;5075240;28;20521;-75
2022/05/07 09:57:41;;;;;;;10.02;6.50;;;19.70;92.80;;;;;;5055756;28;20515;-75
2022/05/07 10:00:13;;;;;;;10.07;6.88;;;19.80;92.10;;;;;;5066404;28;20035;-75
2022/05/07 10:03:03;;;;;;;11.52;6.78;;;19.80;94.60;;;;;;5070873;28;20036;-73
2022/05/07 10:05:46;;;;;;;11.98;6.95;;;19.70;95.20;;;;;;5061755;28;20071;-73
2022/05/07 10:08:24;;;;;;;12.27;6.45;;;19.40;94.30;;;;;;5069943;28;20033;-74
2022/05/07 10:10:51;;;;;;;10.70;6.80;;;19.10;96.10;;;;;;5037944;28;20120;-74
2022/05/07 10:13:19;;;;;;;9.45;6.63;;;19.30;95.90;;;;;;5052982;28;20025;-74
2022/05/07 10:15:45;;;;;;;10.85;6.85;;;19.60;94.40;;;;;;5052044;28;20037;-75
2022/05/07 10:18:15;;;;;;;11.52;7.15;;;19.80;94.70;;;;;;5052709;28;20033;-76
2022/05/07 10:20:44;;;;;;;14.70;8.27;;;19.80;93.00;;;;;;5054482;28;20378;-74
2022/05/07 10:23:11;;;;;;;13.30;7.60;;;20.10;95.00;;;;;;5072699;28;20039;-74
2022/05/07 10:25:38;;;;;;;10.02;6.40;;;19.90;91.60;;;;;;5069137;28;20416;-72
2022/05/07 10:28:09;;;;;;;12.25;7.90;;;19.80;92.40;;;;;;5071834;28;20468;-77
2022/05/07 10:30:46;;;;;;;15.73;7.60;;;19.70;92.40;;;;;;5052478;28;20064;-74
2022/05/07 10:33:12;;;;;;;18.00;8.13;;;19.80;93.50;;;;;;5063518;28;20159;-76
2022/05/07 10:35:53;;;;;;;12.68;7.22;;;19.80;91.70;;;;;;5070549;28;20099;-73
2022/05/07 10:38:32;;;;;;;14.68;8.00;;;19.70;92.20;;;;;;5070904;28;20101;-75
2022/05/07 10:41:03;;;;;;;12.75;7.18;;;20.00;94.40;;;;;;5071611;28;20638;-74
2022/05/07 10:43:34;;;;;;;12.73;7.13;;;20.20;91.50;;;;;;5072466;28;20036;-74
2022/05/07 10:46:07;;;;;;;11.55;7.43;;;20.40;91.20;;;;;;5071550;28;20081;-76
2022/05/07 10:48:50;;;;;;;10.05;7.47;;;20.50;88.90;;;;;;5072285;28;20029;-74
2022/05/07 10:51:38;;;;;;;13.20;6.63;;;20.70;92.70;;;;;;5071955;28;20055;-73
2022/05/07 10:54:19;;;;;;;13.25;7.25;;;21.10;90.40;;;;;;5069789;28;20461;-74
2022/05/07 10:56:50;;;;;;;11.52;6.95;;;21.20;89.60;;;;;;5048417;28;20104;-72
2022/05/07 10:59:16;;;;;;;;;;;20.90;88.50;;;;;;5057425;28;20115;-73
2022/05/07 11:01:42;;;;;;;14.00;7.15;;;20.60;93.90;;;;;;5055248;28;20015;-73
2022/05/07 11:04:12;;;;;;;7.95;6.13;;;20.20;88.90;;;;;;5067838;28;20503;-74
2022/05/07 11:06:43;;;;;;;11.43;7.00;;;20.00;88.50;;;;;;5064476;28;20017;-72
2022/05/07 11:09:19;;;;;;;15.68;6.90;;;19.70;90.20;;;;;;5070731;28;20037;-75
2022/05/07 11:11:49;;;;;;;14.68;7.50;;;19.40;89.80;;;;;;5066891;28;20043;-74
2022/05/07 11:14:25;;;;;;;10.32;6.80;;;19.60;91.70;;;;;;5065943;28;20051;-73
2022/05/07 11:16:55;;;;;;;14.90;7.20;;;20.10;91.40;;;;;;5067671;28;20143;-74
2022/05/07 11:19:29;;;;;;;11.93;7.15;;;20.60;90.20;;;;;;5067589;28;20036;-73
2022/05/07 11:21:56;;;;;;;14.90;8.40;;;20.90;90.60;;;;;;5070843;28;20078;-73
2022/05/07 11:24:22;;;;;;;12.23;7.25;;;20.90;83.20;;;;;;5068460;28;20025;-73
2022/05/07 11:27:07;;;;;;;16.08;8.20;;;21.20;90.10;;;;;;5068081;28;20074;-73
2022/05/07 11:29:34;;;;;;;13.48;7.43;;;21.20;86.50;;;;;;5066941;28;20036;-72
2022/05/07 11:32:07;;;;;;;11.18;7.93;;;21.00;86.80;;;;;;5067559;28;20112;-74
2022/05/07 11:34:40;;;;;;;12.98;8.50;;;20.70;88.90;;;;;;5066187;28;20032;-74
2022/05/07 11:37:24;;;;;;;13.55;9.02;;;20.60;89.50;;;;;;5068667;28;20040;-73
2022/05/07 11:39:51;;;;;;;12.18;8.18;;;20.40;87.80;;;;;;5067595;28;20036;-73
2022/05/07 11:42:28;;;;;;;16.58;9.10;;;20.10;88.60;;;;;;5067993;28;20036;-73
2022/05/07 11:47:51;;;;;;;15.15;8.75;;;19.80;90.30;;;;;;5070771;28;20085;-74
2022/05/07 11:50:31;;;;;;;11.80;7.78;;;20.10;89.00;;;;;;5069674;28;20428;-73
2022/05/07 11:53:08;;;;;;;12.75;8.35;;;20.40;90.50;;;;;;5060355;28;20063;-73
2022/05/07 11:55:33;;;;;;;13.68;7.57;;;20.50;90.00;;;;;;5059490;28;20025;-72
2022/05/07 11:57:59;;;;;;;16.83;9.40;;;20.10;87.20;;;;;;5062120;28;20395;-72
2022/05/07 12:00:27;;;;;;;13.77;8.45;;;19.90;84.00;;;;;;5067341;28;20040;-71
2022/05/07 12:03:03;;;;;;;13.52;8.55;;;19.80;87.50;;;;;;5065858;28;20035;-69
2022/05/07 12:05:49;;;;;;;16.92;8.00;;;20.00;89.80;;;;;;5061194;28;20041;-69
2022/05/07 12:08:18;;;;;;;17.27;7.47;;;19.90;88.60;;;;;;5066188;28;20032;-67
2022/05/07 12:10:46;;;;;;;15.43;8.07;;;19.80;86.30;;;;;;5066404;28;20492;-66
2022/05/07 12:13:15;;;;;;;14.18;7.50;;;19.70;84.80;;;;;;5068388;28;20119;-67
2022/05/07 12:18:25;;;;;;;11.30;7.32;;;20.00;86.40;;;;;;5054789;28;20097;-68
2022/05/07 12:20:52;;;;;;;10.95;7.70;;;20.00;89.20;;;;;;5064386;28;20052;-68
2022/05/07 12:31:50;;;;;;;11.98;7.65;;;20.10;85.80;;;;;;5055393;28;20629;-67
2022/05/07 12:34:16;;;;;;;9.43;7.07;;;20.30;86.00;;;;;;5068339;28;20032;-67
2022/05/07 12:36:42;;;;;;;12.38;8.52;;;20.50;90.50;;;;;;5068443;28;20373;-68
2022/05/07 12:39:07;;;;;;;12.15;7.45;;;20.60;88.50;;;;;;5064328;28;20059;-67
2022/05/07 12:41:33;;;;;;;11.32;7.55;;;20.60;84.50;;;;;;5070016;28;20819;-68
2022/05/07 12:44:00;;;;;;;18.10;7.03;;;20.60;84.00;;;;;;5067711;28;20492;-67
2022/05/07 12:46:26;;;;;;;8.38;6.85;;;20.60;88.20;;;;;;5068178;28;20072;-69
2022/05/07 12:48:54;;;;;;;16.00;7.53;;;20.80;87.00;;;;;;5064775;28;20025;-67
2022/05/07 12:51:20;;;;;;;11.93;7.75;;;20.90;91.40;;;;;;5067787;28;20036;-68
2022/05/07 12:53:46;;;;;;;12.57;7.75;;;20.90;83.80;;;;;;5061737;28;20085;-66
2022/05/07 12:56:11;;;;;;;13.95;6.93;;;20.90;88.50;;;;;;5043296;28;20063;-68
2022/05/07 12:58:37;;;;;;;8.73;7.00;;;20.90;83.80;;;;;;5068260;28;20043;-67
2022/05/07 13:01:03;;;;;;;10.05;7.50;;;20.80;83.90;;;;;;5068922;28;20417;-67
2022/05/07 13:03:29;;;;;;;10.10;7.07;;;20.50;82.80;;;;;;5061072;28;20037;-69
2022/05/07 13:05:55;;;;;;;10.73;7.95;;;20.20;84.10;;;;;;5050287;28;20476;-68
2022/05/07 13:08:21;;;;;;;11.27;7.72;;;20.30;87.70;;;;;;5066928;28;20048;-68
2022/05/07 13:10:47;;;;;;;12.73;7.38;;;20.20;89.00;;;;;;5068059;28;20197;-65
2022/05/07 13:13:13;;;;;;;8.48;7.05;;;20.20;84.30;;;;;;5067705;28;20020;-68
2022/05/07 13:15:39;;;;;;;10.65;7.07;;;20.20;85.60;;;;;;5062145;28;20551;-67
2022/05/07 13:18:05;;;;;;;13.38;7.28;;;20.30;83.60;;;;;;5066876;28;20040;-67
2022/05/07 13:20:31;;;;;;;14.23;8.48;;;20.30;82.90;;;;;;5068708;28;20033;-67
2022/05/07 13:22:57;;;;;;;8.55;6.80;;;20.10;79.80;;;;;;5065217;28;20035;-66
2022/05/07 13:25:23;;;;;;;10.50;7.72;;;19.90;84.50;;;;;;5058284;28;20036;-67
2022/05/07 13:27:50;;;;;;;8.90;6.90;;;19.80;83.30;;;;;;5067622;28;20056;-65
2022/05/07 13:30:17;;;;;;;14.25;7.28;;;19.80;87.50;;;;;;5069809;28;20041;-68
2022/05/07 13:32:44;;;;;;;11.25;8.05;;;19.90;85.10;;;;;;5066566;28;20028;-69